createdAt,value
2022-12-19T00:00:51.606Z,-2.50
2022-12-19T00:02:53.507Z,-2.50
2022-12-19T00:04:55.236Z,-2.50
2022-12-19T00:06:58.810Z,-2.60
2022-12-19T00:09:01.192Z,-2.60
2022-12-19T00:11:03.423Z,-2.60
2022-12-19T00:13:05.218Z,-2.60
2022-12-19T00:15:07.493Z,-2.60
2022-12-19T00:17:09.223Z,-2.60
2022-12-19T00:19:11.663Z,-2.60
2022-12-19T00:21:18.174Z,-2.60
2022-12-19T00:23:19.901Z,-2.60
2022-12-19T00:25:22.045Z,-2.60
2022-12-19T00:27:23.936Z,-2.60
2022-12-19T00:29:25.721Z,-2.70
2022-12-19T00:31:30.987Z,-2.70
2022-12-19T00:33:32.915Z,-2.60
2022-12-19T00:35:36.354Z,-2.70
2022-12-19T00:37:38.437Z,-2.70
2022-12-19T00:39:44.555Z,-2.60
2022-12-19T00:41:46.523Z,-2.60
2022-12-19T00:43:52.992Z,-2.50
2022-12-19T00:45:54.991Z,-2.50
2022-12-19T00:47:56.674Z,-2.50
2022-12-19T00:49:58.300Z,-2.40
2022-12-19T00:52:00.086Z,-2.40
2022-12-19T00:54:04.295Z,-2.30
2022-12-19T00:56:12.894Z,-2.20
2022-12-19T00:58:14.722Z,-2.10
2022-12-19T01:00:17.545Z,-2.10
2022-12-19T01:02:19.546Z,-2.00
2022-12-19T01:04:29.733Z,-2.00
2022-12-19T01:06:32.571Z,-2.00
2022-12-19T01:08:35.368Z,-2.00
2022-12-19T01:10:37.458Z,-2.00
2022-12-19T01:12:48.364Z,-1.90
2022-12-19T01:14:52.004Z,-1.90
2022-12-19T01:16:53.672Z,-1.90
2022-12-19T01:18:55.501Z,-1.90
2022-12-19T01:21:00.392Z,-1.90
2022-12-19T01:23:02.693Z,-1.90
2022-12-19T01:25:05.086Z,-1.80
2022-12-19T01:27:07.091Z,-1.80
2022-12-19T01:29:08.784Z,-1.70
2022-12-19T01:31:10.523Z,-1.60
2022-12-19T01:33:16.536Z,-1.60
2022-12-19T01:35:21.735Z,-1.50
2022-12-19T01:37:23.968Z,-1.50
2022-12-19T01:39:25.765Z,-1.40
2022-12-19T01:41:29.443Z,-1.40
2022-12-19T01:43:53.015Z,-1.40
2022-12-19T01:46:06.251Z,-1.40
2022-12-19T01:48:20.441Z,-1.40
2022-12-19T01:51:01.605Z,-1.40
2022-12-19T01:53:07.004Z,-1.40
2022-12-19T01:55:10.287Z,-1.50
2022-12-19T01:57:17.770Z,-1.50
2022-12-19T01:59:24.165Z,-1.50
2022-12-19T02:01:25.990Z,-1.40
2022-12-19T02:03:29.395Z,-1.40
2022-12-19T02:05:32.064Z,-1.30
2022-12-19T02:07:35.969Z,-1.30
2022-12-19T02:09:37.755Z,-1.20
2022-12-19T02:11:39.470Z,-1.20
2022-12-19T02:13:41.486Z,-1.20
2022-12-19T02:16:19.051Z,-1.20
2022-12-19T02:19:00.554Z,-1.30
2022-12-19T02:21:12.770Z,-1.20
2022-12-19T02:23:42.439Z,-1.20
2022-12-19T02:25:59.391Z,-1.20
2022-12-19T02:28:19.302Z,-1.20
2022-12-19T02:30:45.345Z,-1.10
2022-12-19T02:33:03.467Z,-1.10
2022-12-19T02:35:33.574Z,-1.10
2022-12-19T02:37:58.673Z,-1.10
2022-12-19T02:40:14.863Z,-1.10
2022-12-19T02:42:25.144Z,-1.20
2022-12-19T02:44:40.412Z,-1.10
2022-12-19T02:46:44.640Z,-1.10
2022-12-19T02:48:47.758Z,-1.10
2022-12-19T02:50:50.216Z,-1.10
2022-12-19T02:52:52.365Z,-1.10
2022-12-19T02:54:57.376Z,-1.10
2022-12-19T02:57:28.250Z,-1.10
2022-12-19T02:59:50.606Z,-1.10
2022-12-19T03:02:04.259Z,-1.10
2022-12-19T03:04:17.789Z,-1.10
2022-12-19T03:06:32.656Z,-1.10
2022-12-19T03:08:52.338Z,-1.00
2022-12-19T03:11:06.585Z,-0.90
2022-12-19T03:13:10.345Z,-0.90
2022-12-19T03:15:14.557Z,-0.90
2022-12-19T03:17:19.118Z,-0.90
2022-12-19T03:19:21.204Z,-0.80
2022-12-19T03:21:39.408Z,-0.80
2022-12-19T03:23:41.931Z,-0.70
2022-12-19T03:25:48.852Z,-0.70
2022-12-19T03:27:52.059Z,-0.60
2022-12-19T03:30:01.467Z,-0.60
2022-12-19T03:32:06.777Z,-0.60
2022-12-19T03:34:16.251Z,-0.60
2022-12-19T03:36:24.329Z,-0.40
2022-12-19T03:38:27.413Z,-0.30
2022-12-19T03:40:30.581Z,-0.20
2022-12-19T03:42:52.502Z,-0.10
2022-12-19T03:44:57.607Z,0.00
2022-12-19T03:47:17.717Z,0.10
2022-12-19T03:49:19.775Z,0.20
2022-12-19T03:51:47.128Z,0.30
2022-12-19T03:54:08.231Z,0.30
2022-12-19T03:56:18.496Z,0.30
2022-12-19T03:58:30.673Z,0.30
2022-12-19T04:00:36.742Z,0.30
2022-12-19T04:02:41.175Z,0.30
2022-12-19T04:04:46.866Z,0.30
2022-12-19T04:06:49.456Z,0.40
2022-12-19T04:08:51.201Z,0.50
2022-12-19T04:11:00.390Z,0.60
2022-12-19T04:13:08.842Z,0.60
2022-12-19T04:15:12.597Z,0.50
2022-12-19T04:17:38.699Z,0.50
2022-12-19T04:19:52.733Z,0.50
2022-12-19T04:22:03.666Z,0.50
2022-12-19T04:24:11.156Z,0.40
2022-12-19T04:26:13.747Z,0.30
2022-12-19T04:28:22.658Z,0.30
2022-12-19T04:30:24.382Z,0.30
2022-12-19T04:32:28.004Z,0.30
2022-12-19T04:34:29.630Z,0.40
2022-12-19T04:36:31.497Z,0.40
2022-12-19T04:38:33.474Z,0.50
2022-12-19T04:40:40.998Z,0.50
2022-12-19T04:42:43.367Z,0.50
2022-12-19T04:44:45.093Z,0.50
2022-12-19T04:46:46.925Z,0.40
2022-12-19T04:48:48.631Z,0.40
2022-12-19T04:50:50.533Z,0.40
2022-12-19T04:52:56.887Z,0.40
2022-12-19T04:54:58.917Z,0.40
2022-12-19T04:57:00.835Z,0.30
2022-12-19T04:59:02.663Z,0.30
2022-12-19T05:01:06.349Z,0.30
2022-12-19T05:03:08.194Z,0.30
2022-12-19T05:05:10.070Z,0.20
2022-12-19T05:07:13.010Z,0.20
2022-12-19T05:09:14.825Z,0.10
2022-12-19T05:11:19.789Z,0.10
2022-12-19T05:13:21.840Z,0.00
2022-12-19T05:15:23.635Z,0.00
2022-12-19T05:17:25.738Z,-0.10
2022-12-19T05:19:27.714Z,-0.10
2022-12-19T05:21:29.433Z,-0.20
2022-12-19T05:23:31.189Z,-0.10
2022-12-19T05:25:36.180Z,-0.20
2022-12-19T05:27:37.840Z,-0.20
2022-12-19T05:29:39.839Z,-0.10
2022-12-19T05:31:41.803Z,0.00
2022-12-19T05:33:44.149Z,0.00
2022-12-19T05:35:46.184Z,0.10
2022-12-19T05:37:47.833Z,0.10
2022-12-19T05:39:49.477Z,0.10
2022-12-19T05:41:51.176Z,0.20
2022-12-19T05:43:55.513Z,0.30
2022-12-19T05:45:57.563Z,0.50
2022-12-19T05:48:01.510Z,0.60
2022-12-19T05:50:04.306Z,0.80
2022-12-19T05:52:06.639Z,0.90
2022-12-19T05:54:08.489Z,1.10
2022-12-19T05:56:15.873Z,1.10
2022-12-19T05:58:17.660Z,1.30
2022-12-19T06:00:19.529Z,1.30
2022-12-19T06:02:21.527Z,1.30
2022-12-19T06:04:23.308Z,1.30
2022-12-19T06:06:26.926Z,1.40
2022-12-19T06:08:28.619Z,1.60
2022-12-19T06:10:30.308Z,1.70
2022-12-19T06:12:31.990Z,1.80
2022-12-19T06:14:33.785Z,1.80
2022-12-19T06:16:35.554Z,1.80
2022-12-19T06:18:41.598Z,1.80
2022-12-19T06:20:56.650Z,1.80
2022-12-19T06:23:00.059Z,1.80
2022-12-19T06:25:02.102Z,1.80
2022-12-19T06:27:03.891Z,1.90
2022-12-19T06:29:05.607Z,2.00
2022-12-19T06:31:07.956Z,2.10
2022-12-19T06:33:10.081Z,2.20
2022-12-19T06:35:11.913Z,2.20
2022-12-19T06:37:13.610Z,2.30
2022-12-19T06:39:16.300Z,2.40
2022-12-19T06:41:37.243Z,2.40
2022-12-19T06:43:39.302Z,2.50
2022-12-19T06:45:40.930Z,2.60
2022-12-19T06:47:42.755Z,2.60
2022-12-19T06:49:44.422Z,2.60
2022-12-19T06:51:46.330Z,2.70
2022-12-19T06:53:49.548Z,2.70
2022-12-19T06:55:53.866Z,2.80
2022-12-19T06:57:55.903Z,2.90
2022-12-19T06:59:58.162Z,3.00
2022-12-19T07:02:12.179Z,3.00
2022-12-19T07:04:19.385Z,3.10
2022-12-19T07:06:21.044Z,3.00
2022-12-19T07:08:22.892Z,3.10
2022-12-19T07:10:24.647Z,3.00
2022-12-19T07:12:26.342Z,3.00
2022-12-19T07:14:28.131Z,3.00
2022-12-19T07:16:29.984Z,3.00
2022-12-19T07:18:36.835Z,3.00
2022-12-19T07:20:44.906Z,3.10
2022-12-19T07:22:48.481Z,3.10
2022-12-19T07:24:50.434Z,3.20
2022-12-19T07:26:52.214Z,3.20
2022-12-19T07:28:54.536Z,3.20
2022-12-19T07:30:56.429Z,3.30
2022-12-19T07:32:58.197Z,3.30
2022-12-19T07:35:00.149Z,3.40
2022-12-19T07:37:01.849Z,3.40
2022-12-19T07:39:03.816Z,3.50
2022-12-19T07:41:06.227Z,3.50
2022-12-19T07:43:07.971Z,3.50
2022-12-19T07:45:10.244Z,3.50
2022-12-19T07:47:12.028Z,3.60
2022-12-19T07:49:18.228Z,3.60
2022-12-19T07:51:22.765Z,3.60
2022-12-19T07:53:24.441Z,3.60
2022-12-19T07:55:26.796Z,3.60
2022-12-19T07:57:28.447Z,3.60
2022-12-19T07:59:34.463Z,3.60
2022-12-19T08:01:40.605Z,3.60
2022-12-19T08:03:42.901Z,3.60
2022-12-19T08:05:44.743Z,3.50
2022-12-19T08:07:46.411Z,3.50
2022-12-19T08:09:48.172Z,3.50
2022-12-19T08:11:49.994Z,3.50
2022-12-19T08:13:52.089Z,3.50
2022-12-19T08:15:54.540Z,3.50
2022-12-19T08:17:56.291Z,3.60
2022-12-19T08:19:58.017Z,3.60
2022-12-19T08:21:59.706Z,3.60
2022-12-19T08:24:01.426Z,3.60
2022-12-19T08:26:05.765Z,3.70
2022-12-19T08:28:07.614Z,3.70
2022-12-19T08:30:09.940Z,3.70
2022-12-19T08:32:15.660Z,3.80
2022-12-19T08:34:20.487Z,3.80
2022-12-19T08:36:23.493Z,3.80
2022-12-19T08:38:25.246Z,3.90
2022-12-19T08:40:27.011Z,4.00
2022-12-19T08:42:28.641Z,4.00
2022-12-19T08:44:30.673Z,4.10
2022-12-19T08:46:32.477Z,4.10
2022-12-19T08:48:35.304Z,4.20
2022-12-19T08:50:37.067Z,4.20
2022-12-19T08:52:38.766Z,4.30
2022-12-19T08:54:40.636Z,4.20
2022-12-19T08:56:46.329Z,4.20
2022-12-19T08:58:51.462Z,4.30
2022-12-19T09:00:58.881Z,4.30
2022-12-19T09:03:05.459Z,4.30
2022-12-19T09:06:05.159Z,4.30
2022-12-19T09:07:30.932Z,4.30
2022-12-19T09:09:32.633Z,4.20
2022-12-19T09:11:36.217Z,4.20
2022-12-19T09:13:48.854Z,4.20
2022-12-19T09:15:59.370Z,4.20
2022-12-19T09:18:01.456Z,4.20
2022-12-19T09:20:03.196Z,4.30
2022-12-19T09:22:05.167Z,4.30
2022-12-19T09:24:08.044Z,4.40
2022-12-19T09:26:12.381Z,4.40
2022-12-19T09:28:29.502Z,4.40
2022-12-19T09:30:31.228Z,4.30
2022-12-19T09:32:33.992Z,4.40
2022-12-19T09:34:37.771Z,4.50
2022-12-19T09:36:40.430Z,4.50
2022-12-19T09:38:43.826Z,4.50
2022-12-19T09:41:08.502Z,4.50
2022-12-19T09:43:28.999Z,4.60
2022-12-19T09:45:55.323Z,4.50
2022-12-19T09:47:59.169Z,4.60
2022-12-19T09:50:02.490Z,4.60
2022-12-19T09:52:26.907Z,4.60
2022-12-19T09:54:36.586Z,4.60
2022-12-19T09:56:45.567Z,4.50
2022-12-19T09:58:58.414Z,4.50
2022-12-19T10:01:05.870Z,4.60
2022-12-19T10:03:49.533Z,4.60
2022-12-19T10:07:06.872Z,4.70
2022-12-19T10:08:44.774Z,4.80
2022-12-19T10:12:40.652Z,4.90
2022-12-19T10:14:26.681Z,5.20
2022-12-19T10:17:22.440Z,5.40
2022-12-19T10:19:28.641Z,5.50
2022-12-19T10:22:19.523Z,5.70
2022-12-19T10:24:42.211Z,5.70
2022-12-19T10:26:53.785Z,5.80
2022-12-19T10:29:10.862Z,5.80
2022-12-19T10:31:30.051Z,5.70
2022-12-19T10:33:56.193Z,5.70
2022-12-19T10:36:02.212Z,5.60
2022-12-19T10:38:25.344Z,5.60
2022-12-19T10:40:42.176Z,5.70
2022-12-19T10:42:54.887Z,5.80
2022-12-19T10:44:59.262Z,6.00
2022-12-19T10:47:03.885Z,6.10
2022-12-19T10:49:17.094Z,6.20
2022-12-19T10:51:28.546Z,6.20
2022-12-19T10:53:32.164Z,6.30
2022-12-19T10:55:36.604Z,6.50
2022-12-19T10:57:38.273Z,6.60
2022-12-19T10:59:57.904Z,6.70
2022-12-19T11:02:00.628Z,6.70
2022-12-19T11:04:29.853Z,6.60
2022-12-19T11:06:37.728Z,6.50
2022-12-19T11:08:39.829Z,6.40
2022-12-19T11:12:26.314Z,6.20
2022-12-19T11:17:31.230Z,6.20
2022-12-19T11:23:00.671Z,6.40
2022-12-19T11:27:27.347Z,6.70
2022-12-19T11:29:33.807Z,7.30
2022-12-19T11:29:38.523Z,7.20
2022-12-19T11:29:42.672Z,7.00
2022-12-19T11:30:47.826Z,7.60
2022-12-19T11:31:51.001Z,7.80
2022-12-19T11:33:12.091Z,8.00
2022-12-19T11:35:24.337Z,8.30
2022-12-19T11:37:45.192Z,8.30
2022-12-19T11:40:15.134Z,8.10
2022-12-19T11:42:22.581Z,7.90
2022-12-19T11:44:39.014Z,7.90
2022-12-19T11:46:45.159Z,7.80
2022-12-19T11:49:05.821Z,7.70
2022-12-19T11:51:40.196Z,7.60
2022-12-19T11:53:53.214Z,7.60
2022-12-19T11:56:16.598Z,7.60
2022-12-19T11:58:18.588Z,7.60
2022-12-19T12:00:23.108Z,7.60
2022-12-19T12:02:57.175Z,7.50
2022-12-19T12:05:23.968Z,7.50
2022-12-19T12:08:02.592Z,7.50
2022-12-19T12:13:53.692Z,7.50
2022-12-19T12:21:47.415Z,7.50
2022-12-19T12:25:51.102Z,7.50
2022-12-19T12:31:01.481Z,7.60
2022-12-19T12:31:20.198Z,7.70
2022-12-19T12:31:46.190Z,7.80
2022-12-19T12:31:51.152Z,7.80
2022-12-19T12:31:58.104Z,7.80
2022-12-19T12:35:33.125Z,8.50
2022-12-19T12:40:34.087Z,9.10
2022-12-19T12:42:43.494Z,9.30
2022-12-19T12:44:48.405Z,9.40
2022-12-19T12:47:18.461Z,9.70
2022-12-19T12:49:35.213Z,9.90
2022-12-19T12:51:38.030Z,9.90
2022-12-19T12:53:43.002Z,9.70
2022-12-19T12:55:45.856Z,9.60
2022-12-19T12:57:47.626Z,9.60
2022-12-19T13:00:21.210Z,9.50
2022-12-19T13:02:25.347Z,9.50
2022-12-19T13:04:36.410Z,9.30
2022-12-19T13:06:41.677Z,9.40
2022-12-19T13:08:48.878Z,9.60
2022-12-19T13:10:56.078Z,9.70
2022-12-19T13:13:04.366Z,9.70
2022-12-19T13:15:39.267Z,9.80
2022-12-19T13:17:40.887Z,9.70
2022-12-19T13:20:15.171Z,9.80
2022-12-19T13:22:32.393Z,9.70
2022-12-19T13:24:54.755Z,9.80
2022-12-19T13:26:56.420Z,9.80
2022-12-19T13:29:28.007Z,9.70
2022-12-19T13:31:35.653Z,9.50
2022-12-19T13:33:47.598Z,9.20
2022-12-19T13:39:24.151Z,9.00
2022-12-19T13:39:59.350Z,8.90
2022-12-19T13:41:22.595Z,8.70
2022-12-19T13:43:47.612Z,8.40
2022-12-19T13:45:54.190Z,8.20
2022-12-19T13:47:58.994Z,8.10
2022-12-19T13:50:06.135Z,8.00
2022-12-19T13:52:12.356Z,8.00
2022-12-19T13:54:27.275Z,8.00
2022-12-19T13:56:31.001Z,8.00
2022-12-19T13:58:49.009Z,8.10
2022-12-19T14:00:54.009Z,8.10
2022-12-19T14:02:59.198Z,8.20
2022-12-19T14:05:01.630Z,8.10
2022-12-19T14:07:42.146Z,8.00
2022-12-19T14:11:33.774Z,7.90
2022-12-19T14:13:56.125Z,7.80
2022-12-19T14:15:14.248Z,7.70
2022-12-19T14:17:19.140Z,7.40
2022-12-19T14:19:27.834Z,7.20
2022-12-19T14:22:07.403Z,7.10
2022-12-19T14:24:24.984Z,7.00
2022-12-19T14:28:20.447Z,6.90
2022-12-19T14:28:58.319Z,6.80
2022-12-19T14:31:05.781Z,6.70
2022-12-19T14:33:44.122Z,6.70
2022-12-19T14:36:10.008Z,6.40
2022-12-19T14:39:25.061Z,6.30
2022-12-19T14:40:33.599Z,6.20
2022-12-19T14:43:58.989Z,6.00
2022-12-19T14:53:33.958Z,5.90
2022-12-19T14:54:17.043Z,6.00
2022-12-19T14:54:41.627Z,5.80
2022-12-19T14:55:07.143Z,5.80
2022-12-19T14:56:57.641Z,5.60
2022-12-19T14:58:57.412Z,5.50
2022-12-19T15:01:09.548Z,5.40
2022-12-19T15:03:23.644Z,5.40
2022-12-19T15:05:27.055Z,5.30
2022-12-19T15:07:31.721Z,5.30
2022-12-19T15:11:07.921Z,5.20
2022-12-19T15:14:46.547Z,5.10
2022-12-19T15:15:08.458Z,5.10
2022-12-19T15:17:25.382Z,5.10
2022-12-19T15:19:27.111Z,5.10
2022-12-19T15:21:30.487Z,5.10
2022-12-19T15:23:32.830Z,5.20
2022-12-19T15:26:02.947Z,5.20
2022-12-19T15:27:56.300Z,5.10
2022-12-19T15:29:58.181Z,5.10
2022-12-19T15:31:59.932Z,5.10
2022-12-19T15:34:35.018Z,4.90
2022-12-19T15:36:38.802Z,4.80
2022-12-19T15:38:40.459Z,4.70
2022-12-19T15:40:42.797Z,4.60
2022-12-19T15:42:55.087Z,4.50
2022-12-19T15:44:59.463Z,4.40
2022-12-19T15:47:02.441Z,4.40
2022-12-19T15:49:04.541Z,4.40
2022-12-19T15:51:09.654Z,4.30
2022-12-19T15:53:34.665Z,4.30
2022-12-19T15:55:42.983Z,4.30
2022-12-19T15:58:00.362Z,4.40
2022-12-19T16:00:07.865Z,4.50
2022-12-19T16:02:22.638Z,4.70
2022-12-19T16:04:28.801Z,4.90
2022-12-19T16:06:30.507Z,4.90
2022-12-19T16:08:32.173Z,4.90
2022-12-19T16:10:34.882Z,4.80
2022-12-19T16:12:41.611Z,4.80
2022-12-19T16:14:44.243Z,4.80
2022-12-19T16:16:56.073Z,4.70
2022-12-19T16:18:58.428Z,4.70
2022-12-19T16:21:00.106Z,4.80
2022-12-19T16:23:01.983Z,4.80
2022-12-19T16:25:03.912Z,4.90
2022-12-19T16:27:05.640Z,4.90
2022-12-19T16:29:22.735Z,4.90
2022-12-19T16:31:27.075Z,4.80
2022-12-19T16:33:30.540Z,4.80
2022-12-19T16:36:03.097Z,4.70
2022-12-19T16:37:54.624Z,4.70
2022-12-19T16:39:56.356Z,4.70
2022-12-19T16:41:58.358Z,4.60
2022-12-19T16:44:01.445Z,4.70
2022-12-19T16:46:06.693Z,4.60
2022-12-19T16:48:24.118Z,4.60
2022-12-19T16:50:28.632Z,4.60
2022-12-19T16:52:30.631Z,4.70
2022-12-19T16:54:32.542Z,4.70
2022-12-19T16:56:40.728Z,4.70
2022-12-19T16:58:43.426Z,4.60
2022-12-19T17:00:45.586Z,4.50
2022-12-19T17:02:58.643Z,4.50
2022-12-19T17:05:00.738Z,4.50
2022-12-19T17:07:02.450Z,4.60
2022-12-19T17:09:04.173Z,4.60
2022-12-19T17:11:07.867Z,4.60
2022-12-19T17:13:12.928Z,4.60
2022-12-19T17:15:30.601Z,4.60
2022-12-19T17:17:32.509Z,4.50
2022-12-19T17:19:37.939Z,4.50
2022-12-19T17:21:39.559Z,4.50
2022-12-19T17:23:41.757Z,4.50
2022-12-19T17:25:44.193Z,4.50
2022-12-19T17:27:46.852Z,4.40
2022-12-19T17:29:48.632Z,4.40
2022-12-19T17:31:50.422Z,4.30
2022-12-19T17:33:54.705Z,4.30
2022-12-19T17:35:56.534Z,4.20
2022-12-19T17:37:58.645Z,4.20
2022-12-19T17:40:00.717Z,4.30
2022-12-19T17:42:16.577Z,4.30
2022-12-19T17:44:19.202Z,4.30
2022-12-19T17:46:23.260Z,4.30
2022-12-19T17:48:31.407Z,4.40
2022-12-19T17:50:39.270Z,4.50
2022-12-19T17:52:42.077Z,4.50
2022-12-19T17:54:44.243Z,4.50
2022-12-19T17:56:46.076Z,4.60
2022-12-19T17:58:49.111Z,4.60
2022-12-19T18:00:52.162Z,4.60
2022-12-19T18:02:56.062Z,4.60
2022-12-19T18:04:58.378Z,4.70
2022-12-19T18:07:01.321Z,4.70
2022-12-19T18:09:03.449Z,4.60
2022-12-19T18:11:07.588Z,4.50
2022-12-19T18:13:09.414Z,4.50
2022-12-19T18:15:11.481Z,4.40
2022-12-19T18:17:21.002Z,4.40
2022-12-19T18:19:25.385Z,4.40
2022-12-19T18:21:27.070Z,4.30
2022-12-19T18:23:30.826Z,4.40
2022-12-19T18:25:33.106Z,4.30
2022-12-19T18:27:35.133Z,4.40
2022-12-19T18:29:37.206Z,4.50
2022-12-19T18:31:42.531Z,4.60
2022-12-19T18:33:50.827Z,4.70
2022-12-19T18:35:52.449Z,4.90
2022-12-19T18:37:56.366Z,4.90
2022-12-19T18:39:58.186Z,4.90
2022-12-19T18:42:00.237Z,4.90
2022-12-19T18:44:02.462Z,5.00
2022-12-19T18:46:04.477Z,5.10
2022-12-19T18:48:11.776Z,5.10
2022-12-19T18:50:24.778Z,5.20
2022-12-19T18:52:26.630Z,5.20
2022-12-19T18:54:28.872Z,5.20
2022-12-19T18:56:30.563Z,5.20
2022-12-19T18:58:33.252Z,5.20
2022-12-19T19:00:35.788Z,5.10
2022-12-19T19:02:38.543Z,5.00
2022-12-19T19:04:40.390Z,5.00
2022-12-19T19:06:50.028Z,4.80
2022-12-19T19:08:53.290Z,4.70
2022-12-19T19:10:57.215Z,4.60
2022-12-19T19:13:02.724Z,4.60
2022-12-19T19:15:07.555Z,4.60
2022-12-19T19:17:23.983Z,4.50
2022-12-19T19:19:25.816Z,4.50
2022-12-19T19:21:32.404Z,4.40
2022-12-19T19:23:57.974Z,4.40
2022-12-19T19:25:59.718Z,4.40
2022-12-19T19:28:02.485Z,4.40
2022-12-19T19:30:06.150Z,4.40
2022-12-19T19:32:08.327Z,4.40
2022-12-19T19:34:15.623Z,4.30
2022-12-19T19:36:22.909Z,4.30
2022-12-19T19:38:25.071Z,4.30
2022-12-19T19:40:27.027Z,4.40
2022-12-19T19:42:28.893Z,4.40
2022-12-19T19:44:30.904Z,4.40
2022-12-19T19:46:32.939Z,4.50
2022-12-19T19:48:34.724Z,4.40
2022-12-19T19:50:36.942Z,4.40
2022-12-19T19:52:40.198Z,4.40
2022-12-19T19:54:42.113Z,4.30
2022-12-19T19:56:43.920Z,4.20
2022-12-19T19:58:45.670Z,4.20
2022-12-19T20:00:47.471Z,4.30
2022-12-19T20:02:49.594Z,4.40
2022-12-19T20:04:51.577Z,4.50
2022-12-19T20:06:53.318Z,4.60
2022-12-19T20:08:55.275Z,4.60
2022-12-19T20:10:58.443Z,4.70
2022-12-19T20:13:00.145Z,4.70
2022-12-19T20:15:02.115Z,4.60
2022-12-19T20:17:03.851Z,4.70
2022-12-19T20:19:05.766Z,4.60
2022-12-19T20:21:13.376Z,4.60
2022-12-19T20:23:15.792Z,4.70
2022-12-19T20:25:18.350Z,4.70
2022-12-19T20:27:20.064Z,4.90
2022-12-19T20:29:21.989Z,5.00
2022-12-19T20:31:24.565Z,5.10
2022-12-19T20:33:26.734Z,5.10
2022-12-19T20:35:28.548Z,5.10
2022-12-19T20:37:30.547Z,5.20
2022-12-19T20:39:33.917Z,5.20
2022-12-19T20:41:36.341Z,5.10
2022-12-19T20:43:38.856Z,5.10
2022-12-19T20:45:40.588Z,5.10
2022-12-19T20:47:42.384Z,5.20
2022-12-19T20:49:44.837Z,5.20
2022-12-19T20:51:47.682Z,5.30
2022-12-19T20:53:52.872Z,5.30
2022-12-19T20:55:58.281Z,5.40
2022-12-19T20:58:00.526Z,5.60
2022-12-19T21:00:04.168Z,5.70
2022-12-19T21:02:06.352Z,5.80
2022-12-19T21:04:08.433Z,5.80
2022-12-19T21:06:12.011Z,5.90
2022-12-19T21:08:13.805Z,5.90
2022-12-19T21:10:15.677Z,5.90
2022-12-19T21:12:17.532Z,5.90
2022-12-19T21:14:19.300Z,5.80
2022-12-19T21:16:23.059Z,5.80
2022-12-19T21:18:25.759Z,5.70
2022-12-19T21:20:34.035Z,5.60
2022-12-19T21:22:36.043Z,5.50
2022-12-19T21:24:38.466Z,5.40
2022-12-19T21:26:40.307Z,5.40
2022-12-19T21:28:42.042Z,5.30
2022-12-19T21:30:43.799Z,5.30
2022-12-19T21:32:46.614Z,5.30
2022-12-19T21:34:48.291Z,5.20
2022-12-19T21:36:50.080Z,5.20
2022-12-19T21:38:54.991Z,5.20
2022-12-19T21:40:57.036Z,5.10
2022-12-19T21:42:58.808Z,5.20
2022-12-19T21:45:00.622Z,5.10
2022-12-19T21:47:02.506Z,5.10
2022-12-19T21:49:04.514Z,5.10
2022-12-19T21:51:07.605Z,5.10
2022-12-19T21:53:10.744Z,5.10
2022-12-19T21:55:12.587Z,5.10
2022-12-19T21:57:14.345Z,5.10
2022-12-19T21:59:17.299Z,5.10
2022-12-19T22:01:19.743Z,5.10
2022-12-19T22:03:21.671Z,5.10
2022-12-19T22:05:23.765Z,5.10
2022-12-19T22:07:25.590Z,5.00
2022-12-19T22:09:27.512Z,5.00
2022-12-19T22:11:30.379Z,5.00
2022-12-19T22:13:32.234Z,5.00
2022-12-19T22:15:36.770Z,5.00
2022-12-19T22:17:38.576Z,5.00
2022-12-19T22:19:41.324Z,5.00
2022-12-19T22:21:43.874Z,5.10
2022-12-19T22:23:45.809Z,5.10
2022-12-19T22:25:47.488Z,5.20
2022-12-19T22:27:49.271Z,5.20
2022-12-19T22:29:50.984Z,5.10
2022-12-19T22:31:53.453Z,5.20
2022-12-19T22:33:58.179Z,5.20
2022-12-19T22:36:05.576Z,5.30
2022-12-19T22:38:07.250Z,5.40
2022-12-19T22:40:09.427Z,5.50
2022-12-19T22:42:11.188Z,5.60
2022-12-19T22:44:18.856Z,5.60
2022-12-19T22:46:23.642Z,5.70
2022-12-19T22:48:25.443Z,5.70
2022-12-19T22:50:28.594Z,5.70
2022-12-19T22:52:30.313Z,5.70
2022-12-19T22:54:32.167Z,5.60
2022-12-19T22:56:35.564Z,5.60
2022-12-19T22:58:39.733Z,5.70
2022-12-19T23:00:42.415Z,5.70
2022-12-19T23:02:44.258Z,5.80
2022-12-19T23:04:46.034Z,5.70
2022-12-19T23:06:47.791Z,5.70
2022-12-19T23:08:49.716Z,5.60
2022-12-19T23:10:54.728Z,5.60
2022-12-19T23:12:56.533Z,5.60
2022-12-19T23:14:58.322Z,5.70
2022-12-19T23:17:00.153Z,5.70
2022-12-19T23:19:01.966Z,5.80
2022-12-19T23:21:11.025Z,5.80
2022-12-19T23:23:13.187Z,5.80
2022-12-19T23:25:15.085Z,5.80
2022-12-19T23:27:16.855Z,5.70
2022-12-19T23:29:19.336Z,5.70
2022-12-19T23:31:21.142Z,5.80
2022-12-19T23:33:23.133Z,5.80
2022-12-19T23:35:24.816Z,5.80
2022-12-19T23:37:26.463Z,5.90
2022-12-19T23:39:28.171Z,6.00
2022-12-19T23:41:29.938Z,6.10
2022-12-19T23:43:33.479Z,6.10
2022-12-19T23:45:39.034Z,6.20
2022-12-19T23:47:41.039Z,6.20
2022-12-19T23:49:42.779Z,6.20
2022-12-19T23:51:44.525Z,6.20
2022-12-19T23:53:46.947Z,6.20
2022-12-19T23:55:50.154Z,6.30
2022-12-19T23:57:51.933Z,6.30
2022-12-19T23:59:53.583Z,6.30
